Time;durP1;ratioP1;P1;durP2;ratioP2;P2;SDS_P1;SDS_P2;PMS_P1;PMS_P2;Temp;Humidity;BMP_temperature;BMP_pressure;BME280_temperature;BME280_humidity;BME280_pressure;Samples;Min_cycle;Max_cycle;Signal;HPM_P1;HPM_P2
2022/08/16 00:00:26;;;;;;;1.85;1.17;;;24.30;74.20;;;;;;5072372;27;45394;-70
2022/08/16 00:02:54;;;;;;;1.10;1.00;;;24.40;74.30;;;;;;5037760;27;45431;-69
2022/08/16 00:05:23;;;;;;;1.08;0.98;;;24.40;74.30;;;;;;5048631;28;45396;-69
2022/08/16 00:07:50;;;;;;;1.75;1.20;;;24.40;74.40;;;;;;5050793;28;45415;-70
2022/08/16 00:10:19;;;;;;;2.05;1.40;;;24.40;74.20;;;;;;5072953;27;47525;-69
2022/08/16 00:12:46;;;;;;;2.25;1.33;;;24.40;74.30;;;;;;5061517;27;45376;-70
2022/08/16 00:15:18;;;;;;;1.40;1.20;;;24.40;74.20;;;;;;5051223;27;45438;-70
2022/08/16 00:17:45;;;;;;;1.10;1.00;;;24.40;74.30;;;;;;5082372;27;45418;-70
2022/08/16 00:20:12;;;;;;;1.75;1.20;;;24.40;74.40;;;;;;5042674;27;47624;-70
2022/08/16 00:22:41;;;;;;;1.63;1.40;;;24.40;74.20;;;;;;5047240;28;45376;-70
2022/08/16 00:25:11;;;;;;;2.40;1.13;;;24.40;74.20;;;;;;5045356;28;45378;-69
2022/08/16 00:27:38;;;;;;;2.15;1.17;;;24.40;74.20;;;;;;5032886;28;45290;-70
2022/08/16 00:30:07;;;;;;;1.40;1.30;;;24.40;74.20;;;;;;5036011;28;48619;-70
2022/08/16 00:32:36;;;;;;;1.35;1.20;;;24.40;74.20;;;;;;5037660;28;45363;-70
2022/08/16 00:35:04;;;;;;;1.98;1.48;;;24.40;74.30;;;;;;5029793;28;45343;-69
2022/08/16 00:37:31;;;;;;;1.60;1.00;;;24.40;74.30;;;;;;5021610;28;45583;-70
2022/08/16 00:39:58;;;;;;;1.85;1.33;;;24.40;74.30;;;;;;5028962;27;45477;-69
2022/08/16 00:42:25;;;;;;;2.13;1.45;;;24.30;74.20;;;;;;5073919;27;45253;-68
2022/08/16 00:44:55;;;;;;;1.20;1.08;;;24.40;74.20;;;;;;5075674;27;45356;-69
2022/08/16 00:47:25;;;;;;;1.02;1.00;;;24.30;74.10;;;;;;5046937;27;45419;-69
2022/08/16 00:49:55;;;;;;;2.90;1.25;;;24.30;74.10;;;;;;5058942;27;47480;-70
2022/08/16 00:52:22;;;;;;;1.20;1.10;;;24.30;74.10;;;;;;5070039;27;45268;-70
2022/08/16 00:54:49;;;;;;;1.35;1.25;;;24.30;74.20;;;;;;5075607;27;45553;-69
2022/08/16 00:57:16;;;;;;;1.45;1.27;;;24.30;74.20;;;;;;5034810;27;45230;-69
2022/08/16 00:59:42;;;;;;;1.60;1.35;;;24.40;74.30;;;;;;5075607;27;46307;-70
2022/08/16 01:02:10;;;;;;;1.20;1.10;;;24.30;74.20;;;;;;5063628;27;46129;-69
2022/08/16 01:04:37;;;;;;;1.98;1.38;;;24.40;74.20;;;;;;5073614;27;45330;-69
2022/08/16 01:07:08;;;;;;;1.70;1.15;;;24.30;74.20;;;;;;5075741;27;45277;-69
2022/08/16 01:09:38;;;;;;;1.35;1.10;;;24.40;74.20;;;;;;5070690;27;47769;-70
2022/08/16 01:12:09;;;;;;;2.20;1.40;;;24.40;74.40;;;;;;5092179;27;45364;-69
2022/08/16 01:14:41;;;;;;;1.15;1.05;;;24.30;74.20;;;;;;5074857;27;45393;-69
2022/08/16 01:17:09;;;;;;;1.60;1.27;;;24.30;74.20;;;;;;5043458;27;45742;-70
2022/08/16 01:19:40;;;;;;;2.20;1.30;;;24.40;74.30;;;;;;5063552;27;48826;-69
2022/08/16 01:22:16;;;;;;;2.83;1.20;;;24.40;74.30;;;;;;5075121;27;45465;-70
2022/08/16 01:24:47;;;;;;;1.92;1.35;;;24.40;74.30;;;;;;5034333;28;45369;-69
2022/08/16 01:27:18;;;;;;;1.40;1.30;;;24.30;74.20;;;;;;5075696;27;45397;-69
2022/08/16 01:29:49;;;;;;;1.83;1.58;;;24.40;74.20;;;;;;5080135;27;48098;-69
2022/08/16 01:32:17;;;;;;;1.23;1.13;;;24.40;74.20;;;;;;5073378;27;45592;-69
2022/08/16 01:34:45;;;;;;;1.75;1.02;;;24.30;74.20;;;;;;5060755;27;45452;-69
2022/08/16 01:37:13;;;;;;;1.52;1.13;;;24.40;74.30;;;;;;5047696;27;45615;-69
2022/08/16 01:39:42;;;;;;;1.50;1.30;;;24.40;74.20;;;;;;5073698;27;46584;-69
2022/08/16 01:42:10;;;;;;;1.60;1.30;;;24.40;74.30;;;;;;5044292;27;45420;-69
2022/08/16 01:44:39;;;;;;;1.88;1.20;;;24.30;74.00;;;;;;5092924;27;45500;-69
2022/08/16 01:47:06;;;;;;;2.17;1.63;;;24.40;74.10;;;;;;5023174;28;45424;-70
2022/08/16 01:49:36;;;;;;;1.30;1.20;;;24.30;74.10;;;;;;5045097;28;45538;-69
2022/08/16 01:52:06;;;;;;;1.55;1.20;;;24.40;74.10;;;;;;5044797;28;45305;-69
2022/08/16 01:54:33;;;;;;;2.35;1.20;;;24.30;75.00;;;;;;5046430;28;45290;-69
2022/08/16 01:57:01;;;;;;;1.27;1.13;;;24.30;74.00;;;;;;5048085;28;45375;-69
2022/08/16 01:59:30;;;;;;;1.00;0.90;;;24.30;74.00;;;;;;5044574;28;46605;-70
2022/08/16 02:01:57;;;;;;;1.25;1.15;;;24.30;73.90;;;;;;5060541;28;45435;-69
2022/08/16 02:04:25;;;;;;;1.27;1.17;;;24.30;74.00;;;;;;5041805;27;45450;-69
2022/08/16 02:06:52;;;;;;;1.50;1.10;;;24.30;74.00;;;;;;5040528;28;45375;-70
2022/08/16 02:09:21;;;;;;;1.10;1.00;;;24.30;74.00;;;;;;5040513;28;47660;-69
2022/08/16 02:11:50;;;;;;;2.00;1.45;;;24.30;74.00;;;;;;5039975;28;45393;-69
2022/08/16 02:14:17;;;;;;;2.03;1.10;;;24.30;74.20;;;;;;5039946;28;45422;-69
2022/08/16 02:16:45;;;;;;;1.75;1.45;;;24.20;74.30;;;;;;5040461;28;45383;-69
2022/08/16 02:19:12;;;;;;;1.55;1.30;;;24.30;74.30;;;;;;5037090;27;45424;-69
2022/08/16 02:21:40;;;;;;;1.80;1.50;;;24.30;74.50;;;;;;5061683;27;45261;-69
2022/08/16 02:24:07;;;;;;;2.05;1.50;;;24.20;74.50;;;;;;5025246;28;45419;-69
2022/08/16 02:26:34;;;;;;;1.83;1.38;;;24.20;74.40;;;;;;5039606;28;45354;-69
2022/08/16 02:29:01;;;;;;;1.50;1.40;;;24.20;74.60;;;;;;5038067;28;45343;-70
2022/08/16 02:31:28;;;;;;;1.65;1.55;;;24.20;74.50;;;;;;5030007;28;45424;-69
2022/08/16 02:33:56;;;;;;;1.42;1.33;;;24.20;74.50;;;;;;5038653;28;45706;-69
2022/08/16 02:36:23;;;;;;;1.52;1.33;;;24.20;74.40;;;;;;5090519;27;45490;-69
2022/08/16 02:38:50;;;;;;;1.42;1.33;;;24.20;74.40;;;;;;5029762;28;46583;-69
2022/08/16 02:41:16;;;;;;;1.55;1.45;;;24.20;74.40;;;;;;5074201;27;45395;-69
2022/08/16 02:43:43;;;;;;;1.60;1.50;;;24.20;74.40;;;;;;5047518;27;45528;-69
2022/08/16 02:46:10;;;;;;;1.75;1.65;;;24.20;74.50;;;;;;5044274;27;45373;-69
2022/08/16 02:48:38;;;;;;;1.60;1.50;;;24.20;74.50;;;;;;5049972;27;46569;-70
2022/08/16 02:51:08;;;;;;;1.55;1.45;;;24.20;74.50;;;;;;5075284;27;45232;-69
2022/08/16 02:53:36;;;;;;;1.75;1.42;;;24.20;74.40;;;;;;5028561;28;45485;-70
2022/08/16 02:56:04;;;;;;;1.50;1.40;;;24.20;74.30;;;;;;5074320;27;45416;-70
2022/08/16 02:58:32;;;;;;;2.10;1.70;;;24.20;74.20;;;;;;5070850;27;47969;-69
2022/08/16 03:01:00;;;;;;;1.80;1.50;;;24.30;74.30;;;;;;5062886;27;45450;-69
2022/08/16 03:03:27;;;;;;;1.85;1.60;;;24.20;74.10;;;;;;5069270;27;45331;-69
2022/08/16 03:05:54;;;;;;;1.60;1.48;;;24.20;74.10;;;;;;5072751;27;45745;-69
2022/08/16 03:08:23;;;;;;;1.85;1.42;;;24.20;74.00;;;;;;5049480;27;47484;-69
2022/08/16 03:10:49;;;;;;;1.70;1.60;;;24.20;74.00;;;;;;5073886;27;45461;-69
2022/08/16 03:13:16;;;;;;;2.15;1.42;;;24.20;74.20;;;;;;5054781;27;45489;-69
2022/08/16 03:15:43;;;;;;;2.42;1.70;;;24.20;74.10;;;;;;5045208;27;45572;-69
2022/08/16 03:18:10;;;;;;;1.55;1.40;;;24.20;74.20;;;;;;5028255;28;46611;-69
2022/08/16 03:20:37;;;;;;;1.38;1.27;;;24.20;74.20;;;;;;5021728;28;45276;-69
2022/08/16 03:23:05;;;;;;;2.15;1.70;;;24.20;74.10;;;;;;5036248;28;45314;-69
2022/08/16 03:25:33;;;;;;;1.50;1.40;;;24.20;74.10;;;;;;5035349;28;45367;-69
2022/08/16 03:28:00;;;;;;;2.20;1.60;;;24.20;74.10;;;;;;5025539;27;46113;-69
2022/08/16 03:30:31;;;;;;;1.73;1.42;;;24.20;74.00;;;;;;5038891;28;45312;-69
2022/08/16 03:32:57;;;;;;;2.47;1.77;;;24.20;74.00;;;;;;5038797;28;45253;-68
2022/08/16 03:35:26;;;;;;;1.67;1.42;;;24.20;74.00;;;;;;5039663;28;45299;-69
2022/08/16 03:37:57;;;;;;;2.03;1.65;;;24.20;74.00;;;;;;5033080;28;47047;-69
2022/08/16 03:40:24;;;;;;;1.92;1.70;;;24.20;74.00;;;;;;5037245;28;45319;-69
2022/08/16 03:42:52;;;;;;;1.50;1.40;;;24.20;73.90;;;;;;5037188;28;45303;-69
2022/08/16 03:45:19;;;;;;;1.92;1.67;;;24.20;73.80;;;;;;5037535;28;45301;-69
2022/08/16 03:47:47;;;;;;;1.83;1.48;;;24.20;73.80;;;;;;5037734;28;45337;-69
2022/08/16 03:50:15;;;;;;;1.80;1.70;;;24.20;73.60;;;;;;5039329;28;45471;-69
2022/08/16 03:52:41;;;;;;;1.95;1.70;;;24.20;73.60;;;;;;5037631;27;45467;-69
2022/08/16 03:55:10;;;;;;;2.25;2.00;;;24.20;73.50;;;;;;5049006;27;45330;-70
2022/08/16 03:57:37;;;;;;;2.88;2.20;;;24.20;73.50;;;;;;5087382;27;47988;-69
2022/08/16 04:00:12;;;;;;;2.15;1.70;;;24.10;73.20;;;;;;5059012;27;45763;-69
2022/08/16 04:02:40;;;;;;;2.45;2.13;;;24.20;73.30;;;;;;5027096;28;45387;-69
2022/08/16 04:05:07;;;;;;;2.65;1.90;;;24.10;73.10;;;;;;5071740;27;45448;-70
2022/08/16 04:07:34;;;;;;;2.72;2.05;;;24.10;73.00;;;;;;5087487;27;47080;-69
2022/08/16 04:10:01;;;;;;;2.10;1.90;;;24.10;73.00;;;;;;5052839;27;45483;-69
2022/08/16 04:12:28;;;;;;;2.30;2.10;;;24.10;72.90;;;;;;5050656;27;45287;-69
2022/08/16 04:14:54;;;;;;;2.60;2.25;;;24.10;72.80;;;;;;5055450;27;45419;-69
2022/08/16 04:17:23;;;;;;;2.20;2.00;;;24.10;72.80;;;;;;5085669;27;45303;-69
2022/08/16 04:19:50;;;;;;;2.88;2.50;;;24.10;72.80;;;;;;5059129;27;45408;-69
2022/08/16 04:22:18;;;;;;;2.70;2.45;;;24.10;72.70;;;;;;5043611;27;45420;-69
2022/08/16 04:24:44;;;;;;;2.90;2.47;;;24.10;72.60;;;;;;5086394;27;45407;-69
2022/08/16 04:27:12;;;;;;;5.25;2.40;;;24.10;72.60;;;;;;5043413;28;47362;-69
2022/08/16 04:29:38;;;;;;;3.92;2.30;;;24.10;72.60;;;;;;5035118;28;45411;-69
2022/08/16 04:32:06;;;;;;;2.83;2.25;;;24.10;72.50;;;;;;5040651;27;45614;-68
2022/08/16 04:34:37;;;;;;;3.28;2.38;;;24.10;72.50;;;;;;5090793;27;45571;-69
2022/08/16 04:37:05;;;;;;;2.65;2.00;;;24.10;72.40;;;;;;5078904;27;47091;-69
2022/08/16 04:39:33;;;;;;;2.70;2.28;;;24.10;72.40;;;;;;5028242;28;45446;-69
2022/08/16 04:42:00;;;;;;;2.80;2.13;;;24.10;72.40;;;;;;5037802;28;45291;-69
2022/08/16 04:44:27;;;;;;;3.58;2.33;;;24.10;72.40;;;;;;5044779;28;45593;-69
2022/08/16 04:46:54;;;;;;;2.38;2.13;;;24.10;72.30;;;;;;5080034;27;48538;-69
2022/08/16 04:49:21;;;;;;;4.00;1.92;;;24.10;72.30;;;;;;5042879;27;45616;-69
2022/08/16 04:51:50;;;;;;;3.45;2.10;;;24.10;73.30;;;;;;5067554;27;45465;-69
2022/08/16 04:54:17;;;;;;;2.42;1.92;;;24.10;72.20;;;;;;5053744;27;45405;-69
2022/08/16 04:56:44;;;;;;;4.68;2.20;;;24.10;73.30;;;;;;5091216;27;46529;-69
2022/08/16 04:59:11;;;;;;;3.00;2.15;;;24.10;72.20;;;;;;5046380;27;45857;-69
2022/08/16 05:01:38;;;;;;;3.58;2.28;;;24.10;72.20;;;;;;5046310;27;45406;-69
2022/08/16 05:04:05;;;;;;;2.60;2.00;;;24.10;72.20;;;;;;5037929;27;45285;-70
2022/08/16 05:06:32;;;;;;;3.15;2.13;;;24.10;72.20;;;;;;5070372;27;47046;-69
2022/08/16 05:09:00;;;;;;;4.50;2.40;;;24.10;72.20;;;;;;5051164;27;45486;-69
2022/08/16 05:11:28;;;;;;;3.60;2.08;;;24.10;72.10;;;;;;5049828;27;45273;-69
2022/08/16 05:13:55;;;;;;;4.40;2.22;;;24.10;72.20;;;;;;5055112;27;45363;-70
2022/08/16 05:16:25;;;;;;;3.05;2.30;;;24.10;72.30;;;;;;5079894;27;47820;-69
2022/08/16 05:18:54;;;;;;;2.83;2.08;;;24.10;72.30;;;;;;5033695;27;45616;-69
2022/08/16 05:21:21;;;;;;;2.95;2.08;;;24.10;72.30;;;;;;5025668;28;45303;-69
2022/08/16 05:23:49;;;;;;;2.53;1.98;;;24.10;72.30;;;;;;5058828;27;45427;-69
2022/08/16 05:26:17;;;;;;;2.05;1.67;;;24.10;72.40;;;;;;5032492;27;46441;-69
2022/08/16 05:28:43;;;;;;;3.13;1.70;;;24.10;72.40;;;;;;5046365;28;45428;-68
2022/08/16 05:31:10;;;;;;;2.22;1.75;;;24.10;72.40;;;;;;5037069;28;45372;-69
2022/08/16 05:33:37;;;;;;;2.70;1.80;;;24.10;72.40;;;;;;5040259;28;45459;-69
2022/08/16 05:36:05;;;;;;;1.92;1.70;;;24.10;72.40;;;;;;5037790;28;47356;-70
2022/08/16 05:38:31;;;;;;;2.75;2.28;;;24.10;72.40;;;;;;5040808;28;45396;-68
2022/08/16 05:40:59;;;;;;;1.90;1.67;;;24.10;73.50;;;;;;5040898;28;45408;-68
2022/08/16 05:43:27;;;;;;;1.55;1.45;;;24.10;72.40;;;;;;5037868;27;45454;-69
2022/08/16 05:45:55;;;;;;;2.42;1.83;;;24.10;72.30;;;;;;5040593;28;45581;-69
2022/08/16 05:48:22;;;;;;;1.85;1.75;;;24.10;72.30;;;;;;5039908;28;45745;-69
2022/08/16 05:50:49;;;;;;;2.58;1.95;;;24.10;72.30;;;;;;5049302;28;45415;-69
2022/08/16 05:53:16;;;;;;;2.72;1.73;;;24.20;72.40;;;;;;5039815;28;45454;-69
2022/08/16 05:55:43;;;;;;;2.30;1.67;;;24.10;72.20;;;;;;5073065;27;46653;-70
2022/08/16 05:58:10;;;;;;;3.40;1.63;;;24.10;72.30;;;;;;5045903;27;45364;-70
2022/08/16 06:00:38;;;;;;;3.47;1.92;;;24.10;72.50;;;;;;5039575;27;45460;-69
2022/08/16 06:03:05;;;;;;;2.97;2.10;;;24.20;72.70;;;;;;5038220;27;45303;-69
2022/08/16 06:05:32;;;;;;;2.83;2.10;;;24.20;72.80;;;;;;5038224;28;48057;-69
2022/08/16 06:07:59;;;;;;;2.92;1.85;;;24.20;72.80;;;;;;5034470;28;45437;-70
2022/08/16 06:10:26;;;;;;;3.13;1.75;;;24.20;72.50;;;;;;5037918;28;45901;-70
2022/08/16 06:12:52;;;;;;;2.63;2.08;;;24.20;72.10;;;;;;5037392;27;45424;-69
2022/08/16 06:15:21;;;;;;;2.63;1.90;;;24.20;71.90;;;;;;5035358;27;46611;-69
2022/08/16 06:17:49;;;;;;;2.35;2.05;;;24.20;71.70;;;;;;5038943;27;45438;-69
2022/08/16 06:20:18;;;;;;;2.30;1.75;;;24.20;71.60;;;;;;5035533;27;45396;-70
2022/08/16 06:22:45;;;;;;;3.20;2.05;;;24.20;71.50;;;;;;5035014;28;45429;-71
2022/08/16 06:25:12;;;;;;;2.40;1.90;;;24.20;71.70;;;;;;5036674;27;46329;-70
2022/08/16 06:27:39;;;;;;;2.33;1.92;;;24.30;72.10;;;;;;5037899;27;45461;-70
2022/08/16 06:30:08;;;;;;;2.35;1.88;;;24.30;72.40;;;;;;5034397;27;45435;-71
2022/08/16 06:32:35;;;;;;;2.05;1.65;;;24.20;72.40;;;;;;5035161;28;45679;-69
2022/08/16 06:35:03;;;;;;;2.55;1.95;;;24.30;72.80;;;;;;5036816;28;47573;-70
2022/08/16 06:37:30;;;;;;;4.75;2.22;;;24.30;72.90;;;;;;5037114;28;45645;-69
2022/08/16 06:39:57;;;;;;;2.33;1.83;;;24.30;74.20;;;;;;5038262;28;45606;-70
2022/08/16 06:42:23;;;;;;;1.98;1.77;;;24.20;73.20;;;;;;5035654;28;45589;-70
2022/08/16 06:44:51;;;;;;;4.03;2.17;;;24.30;73.30;;;;;;5030998;27;47525;-69
2022/08/16 06:47:17;;;;;;;3.53;2.05;;;24.30;73.40;;;;;;5036153;28;45513;-69
2022/08/16 06:49:45;;;;;;;3.85;2.10;;;24.30;73.60;;;;;;5037671;28;45476;-69
2022/08/16 06:52:13;;;;;;;3.00;2.00;;;24.30;73.70;;;;;;5035701;28;45270;-69
2022/08/16 06:54:40;;;;;;;3.00;2.03;;;24.30;73.80;;;;;;5037305;28;45502;-68
2022/08/16 06:57:06;;;;;;;2.78;1.90;;;24.30;73.80;;;;;;5038395;28;45648;-69
2022/08/16 06:59:33;;;;;;;3.30;1.90;;;24.30;74.00;;;;;;5038296;28;45385;-70
2022/08/16 07:02:00;;;;;;;3.05;1.90;;;24.30;74.00;;;;;;5039977;28;45515;-69
2022/08/16 07:04:28;;;;;;;2.25;1.60;;;24.30;74.00;;;;;;5037699;28;45462;-69
2022/08/16 07:06:55;;;;;;;2.80;1.80;;;24.30;74.10;;;;;;5035540;28;45436;-69
2022/08/16 07:09:23;;;;;;;2.33;1.80;;;24.30;74.00;;;;;;5039716;27;45498;-69
2022/08/16 07:11:49;;;;;;;17.45;2.70;;;24.30;74.10;;;;;;5037529;28;45506;-72
2022/08/16 07:14:16;;;;;;;18.85;3.35;;;24.30;74.20;;;;;;5037044;28;47529;-70
2022/08/16 07:16:44;;;;;;;16.05;3.08;;;24.40;75.60;;;;;;5035118;28;45389;-70
2022/08/16 07:19:10;;;;;;;10.57;2.90;;;24.40;74.40;;;;;;5038575;28;45493;-70
2022/08/16 07:21:40;;;;;;;4.45;1.92;;;24.40;74.50;;;;;;5035639;28;45361;-70
2022/08/16 07:24:07;;;;;;;3.40;1.70;;;24.30;74.50;;;;;;5036317;27;48028;-70
2022/08/16 07:26:35;;;;;;;4.78;2.42;;;24.40;74.70;;;;;;5037579;27;45859;-70
2022/08/16 07:29:02;;;;;;;6.03;1.90;;;24.30;74.70;;;;;;5035780;28;45392;-70
2022/08/16 07:31:29;;;;;;;4.85;2.17;;;24.30;74.40;;;;;;5031680;28;45558;-70
2022/08/16 07:33:56;;;;;;;3.55;1.75;;;24.40;74.50;;;;;;5037682;28;45386;-71
2022/08/16 07:36:23;;;;;;;3.35;1.80;;;24.30;74.30;;;;;;5035163;27;45451;-70
2022/08/16 07:38:50;;;;;;;4.22;1.85;;;24.40;74.40;;;;;;5036977;28;45341;-69
2022/08/16 07:41:17;;;;;;;3.15;2.00;;;24.40;74.60;;;;;;5037261;27;45416;-70
2022/08/16 07:43:46;;;;;;;2.00;1.80;;;24.30;74.50;;;;;;5031829;28;46295;-70
2022/08/16 07:46:13;;;;;;;3.70;1.90;;;24.40;74.70;;;;;;5041382;28;45396;-69
2022/08/16 07:48:39;;;;;;;6.32;1.90;;;24.40;74.50;;;;;;5043747;28;45498;-67
2022/08/16 07:51:06;;;;;;;4.32;1.83;;;24.30;74.50;;;;;;5044689;28;45313;-70
2022/08/16 07:53:34;;;;;;;4.20;1.83;;;24.30;74.50;;;;;;5040201;28;48470;-70
2022/08/16 07:56:01;;;;;;;4.68;2.08;;;24.40;74.70;;;;;;5044589;28;45274;-70
2022/08/16 07:58:29;;;;;;;5.00;1.90;;;24.40;74.60;;;;;;5044191;28;45432;-70
2022/08/16 08:00:58;;;;;;;3.30;2.03;;;24.40;74.60;;;;;;5044784;28;45489;-70
2022/08/16 08:03:24;;;;;;;3.30;1.92;;;24.40;74.50;;;;;;5043100;27;46625;-69
2022/08/16 08:05:51;;;;;;;2.40;1.88;;;24.40;74.50;;;;;;5044885;28;45385;-70
2022/08/16 08:08:18;;;;;;;4.22;1.90;;;24.40;74.60;;;;;;5043848;28;45365;-70
2022/08/16 08:10:45;;;;;;;3.63;1.90;;;24.40;74.40;;;;;;5044293;28;45441;-70
2022/08/16 08:13:11;;;;;;;2.60;1.95;;;24.40;74.40;;;;;;5042655;27;48023;-70
2022/08/16 08:15:38;;;;;;;2.70;1.80;;;24.40;74.30;;;;;;5042724;28;45613;-70
2022/08/16 08:18:06;;;;;;;2.30;1.75;;;24.40;74.40;;;;;;5043752;28;45328;-69
2022/08/16 08:20:33;;;;;;;2.10;1.60;;;24.40;74.40;;;;;;5040721;27;45543;-70
2022/08/16 08:23:00;;;;;;;3.10;1.90;;;24.40;74.60;;;;;;5042754;28;45424;-72
2022/08/16 08:25:28;;;;;;;5.47;1.77;;;24.40;74.30;;;;;;5043250;28;45394;-70
2022/08/16 08:27:55;;;;;;;3.05;1.88;;;24.40;74.30;;;;;;5042795;28;45386;-69
2022/08/16 08:30:22;;;;;;;2.72;2.00;;;24.40;74.40;;;;;;5043305;28;45529;-69
2022/08/16 08:32:49;;;;;;;8.30;1.95;;;24.40;75.10;;;;;;5040953;28;48905;-72
2022/08/16 08:35:17;;;;;;;4.10;1.92;;;24.50;75.70;;;;;;5045750;27;45371;-70
2022/08/16 08:37:44;;;;;;;4.18;1.90;;;24.40;77.30;;;;;;5043260;28;45379;-71
2022/08/16 08:40:12;;;;;;;2.40;2.13;;;24.40;78.50;;;;;;5044181;27;45482;-70
2022/08/16 08:42:42;;;;;;;4.05;2.08;;;24.40;79.60;;;;;;5042257;28;47282;-70
2022/08/16 08:45:11;;;;;;;3.03;2.10;;;24.40;81.50;;;;;;5043311;28;45508;-70
2022/08/16 08:47:39;;;;;;;2.50;2.20;;;24.30;82.00;;;;;;5043428;27;45396;-70
2022/08/16 08:50:07;;;;;;;2.97;2.00;;;24.30;82.30;;;;;;5044485;28;45542;-71
2022/08/16 08:52:35;;;;;;;2.30;2.00;;;24.20;82.80;;;;;;5042397;27;47539;-70
2022/08/16 08:55:04;;;;;;;4.05;2.28;;;24.20;83.80;;;;;;5041596;28;45380;-71
2022/08/16 08:57:31;;;;;;;2.33;1.73;;;24.20;84.50;;;;;;5040783;27;45360;-70
2022/08/16 08:59:57;;;;;;;2.78;1.85;;;24.20;85.00;;;;;;5039324;28;45496;-70
2022/08/16 09:02:24;;;;;;;3.00;1.90;;;24.20;85.00;;;;;;5039662;28;46569;-70
2022/08/16 09:04:51;;;;;;;2.53;1.88;;;24.20;85.50;;;;;;5038309;28;45359;-70
2022/08/16 09:07:20;;;;;;;3.78;2.40;;;24.20;86.00;;;;;;5044656;28;45570;-70
2022/08/16 09:09:48;;;;;;;2.05;1.70;;;24.20;85.70;;;;;;5038662;28;45710;-70
2022/08/16 09:12:17;;;;;;;3.00;2.28;;;24.20;86.40;;;;;;5038693;28;45469;-70
2022/08/16 09:14:44;;;;;;;2.92;2.20;;;24.10;86.60;;;;;;5039772;28;45599;-70
2022/08/16 09:17:11;;;;;;;2.72;1.98;;;24.20;87.10;;;;;;5039236;28;45352;-70
2022/08/16 09:19:39;;;;;;;2.85;2.00;;;24.10;87.70;;;;;;5038041;28;45429;-71
2022/08/16 09:22:06;;;;;;;3.00;2.13;;;24.20;87.80;;;;;;5041255;27;47768;-70
2022/08/16 09:24:33;;;;;;;3.50;2.20;;;24.20;87.80;;;;;;5037777;28;45390;-70
2022/08/16 09:27:02;;;;;;;3.03;2.10;;;24.10;88.10;;;;;;5033494;28;45462;-71
2022/08/16 09:29:28;;;;;;;2.80;2.13;;;24.20;88.80;;;;;;5036925;28;45555;-70
2022/08/16 09:31:57;;;;;;;2.45;2.00;;;24.10;88.90;;;;;;5038520;28;47708;-70
2022/08/16 09:34:24;;;;;;;1.75;1.65;;;24.10;89.10;;;;;;5037454;28;45432;-71
2022/08/16 09:36:51;;;;;;;1.75;1.63;;;24.10;89.50;;;;;;5038185;27;45451;-70
2022/08/16 09:39:20;;;;;;;2.80;1.90;;;24.10;89.30;;;;;;5038386;28;45315;-71
2022/08/16 09:41:49;;;;;;;2.20;1.98;;;24.10;89.40;;;;;;5039775;27;46384;-70
2022/08/16 09:44:19;;;;;;;2.75;2.17;;;24.10;90.40;;;;;;5036465;28;45549;-70
2022/08/16 09:46:46;;;;;;;2.13;1.90;;;24.10;90.30;;;;;;5036677;27;45357;-70
2022/08/16 09:49:13;;;;;;;3.00;2.05;;;24.10;90.00;;;;;;5038746;28;45458;-70
2022/08/16 09:51:40;;;;;;;2.35;2.15;;;24.10;90.20;;;;;;5037925;28;45570;-71
2022/08/16 09:54:09;;;;;;;3.63;2.03;;;24.10;90.20;;;;;;5037075;27;45373;-71
2022/08/16 09:56:37;;;;;;;2.90;1.98;;;24.10;90.20;;;;;;5037177;27;45382;-70
2022/08/16 09:59:06;;;;;;;2.00;1.75;;;24.10;90.20;;;;;;5038624;27;45454;-71
2022/08/16 10:01:35;;;;;;;3.33;2.03;;;24.10;90.30;;;;;;5036202;28;48106;-71
2022/08/16 10:04:02;;;;;;;1.90;1.80;;;24.10;90.40;;;;;;5037255;27;45254;-70
2022/08/16 10:06:29;;;;;;;2.28;1.85;;;24.10;90.30;;;;;;5037637;28;45452;-71
2022/08/16 10:08:56;;;;;;;2.10;1.75;;;24.10;90.50;;;;;;5037094;28;45476;-71
2022/08/16 10:14:07;;;;;;;2.63;2.10;;;24.10;90.70;;;;;;5033937;28;45381;-72
2022/08/16 10:16:35;;;;;;;2.08;1.70;;;24.10;90.60;;;;;;5037320;28;45318;-71
2022/08/16 10:19:02;;;;;;;2.95;2.22;;;24.10;90.60;;;;;;5039695;28;45415;-71
2022/08/16 10:21:30;;;;;;;2.45;1.90;;;24.10;90.70;;;;;;5036843;27;46726;-71
2022/08/16 10:23:57;;;;;;;2.25;1.70;;;24.10;90.80;;;;;;5035604;28;45419;-71
2022/08/16 10:26:24;;;;;;;2.20;1.73;;;24.10;90.90;;;;;;5038828;27;45326;-71
2022/08/16 10:28:52;;;;;;;2.22;1.80;;;24.10;90.90;;;;;;5037869;27;45478;-70
2022/08/16 10:31:18;;;;;;;1.80;1.60;;;24.10;91.00;;;;;;5035622;27;46076;-71
2022/08/16 10:33:47;;;;;;;2.88;1.90;;;24.10;91.00;;;;;;5039202;28;45448;-71
2022/08/16 10:36:14;;;;;;;3.55;2.15;;;24.10;91.00;;;;;;5027957;28;45278;-70
2022/08/16 10:38:42;;;;;;;2.70;1.77;;;24.10;91.10;;;;;;5043680;28;45481;-71
2022/08/16 10:41:10;;;;;;;2.38;2.17;;;24.10;91.20;;;;;;5034224;28;45370;-71
2022/08/16 10:43:38;;;;;;;2.83;2.08;;;24.10;91.10;;;;;;5036107;28;45353;-71
2022/08/16 10:46:10;;;;;;;2.40;1.92;;;24.10;91.20;;;;;;5034677;28;45335;-71
2022/08/16 10:48:37;;;;;;;2.70;1.90;;;24.10;91.20;;;;;;5034591;28;45593;-71
2022/08/16 10:51:06;;;;;;;2.10;1.70;;;24.10;91.20;;;;;;5036129;28;46559;-71
2022/08/16 10:53:34;;;;;;;1.67;1.58;;;24.10;91.40;;;;;;5035064;28;45455;-71
2022/08/16 10:56:01;;;;;;;2.28;2.00;;;24.10;91.40;;;;;;5036840;27;45388;-71
2022/08/16 10:58:29;;;;;;;2.10;1.65;;;24.10;91.50;;;;;;5035951;28;45433;-71
2022/08/16 11:00:55;;;;;;;2.63;2.20;;;24.10;91.40;;;;;;5038102;27;47427;-71
2022/08/16 11:03:22;;;;;;;2.63;1.80;;;24.10;91.40;;;;;;5036061;28;45307;-72
2022/08/16 11:05:49;;;;;;;2.00;1.80;;;24.10;91.40;;;;;;5034628;28;45514;-71
2022/08/16 11:08:17;;;;;;;1.90;1.70;;;24.10;91.40;;;;;;5036477;27;45479;-70
2022/08/16 11:10:46;;;;;;;2.13;1.85;;;24.10;91.40;;;;;;5034800;28;47540;-70
2022/08/16 11:13:17;;;;;;;2.15;1.70;;;24.10;91.40;;;;;;5036918;27;45332;-72
2022/08/16 11:15:44;;;;;;;2.20;1.77;;;24.10;91.40;;;;;;5031212;28;45367;-70
2022/08/16 11:18:12;;;;;;;2.00;1.63;;;24.10;91.40;;;;;;5036341;28;45342;-70
2022/08/16 11:20:41;;;;;;;2.63;1.77;;;24.10;91.40;;;;;;5036281;27;47488;-72
2022/08/16 11:23:08;;;;;;;2.03;1.70;;;24.10;91.40;;;;;;5037878;28;45485;-71
2022/08/16 11:25:38;;;;;;;2.83;1.85;;;24.10;91.30;;;;;;5034232;28;45570;-71
2022/08/16 11:28:05;;;;;;;3.70;2.15;;;24.10;91.40;;;;;;5036440;28;45332;-70
2022/08/16 11:30:33;;;;;;;1.75;1.60;;;24.10;91.40;;;;;;5037913;27;47582;-70
2022/08/16 11:33:01;;;;;;;2.15;1.73;;;24.10;91.40;;;;;;5035992;27;45766;-70
2022/08/16 11:35:30;;;;;;;3.78;1.98;;;24.10;91.30;;;;;;5036569;27;45552;-70
2022/08/16 11:38:03;;;;;;;1.80;1.52;;;24.10;91.40;;;;;;5036240;28;45624;-69
2022/08/16 11:40:37;;;;;;;2.13;1.70;;;24.10;91.40;;;;;;5033361;27;45471;-70
2022/08/16 11:43:06;;;;;;;2.20;1.90;;;24.10;91.40;;;;;;5035721;28;45441;-70
2022/08/16 11:45:33;;;;;;;2.10;1.88;;;24.10;91.40;;;;;;5035500;27;45558;-70
2022/08/16 11:48:00;;;;;;;2.72;1.80;;;24.10;91.40;;;;;;5034674;27;45326;-70
2022/08/16 11:50:27;;;;;;;1.83;1.70;;;24.10;91.30;;;;;;5035375;28;47426;-70
2022/08/16 11:52:54;;;;;;;2.28;1.80;;;24.10;91.40;;;;;;5035145;28;45580;-70
2022/08/16 11:55:21;;;;;;;3.10;2.10;;;24.10;91.50;;;;;;5035615;28;45385;-70
2022/08/16 11:57:47;;;;;;;1.83;1.70;;;24.10;91.50;;;;;;5036575;28;45509;-70
2022/08/16 12:00:17;;;;;;;1.70;1.60;;;24.10;91.50;;;;;;5036017;27;46654;-70
2022/08/16 12:02:44;;;;;;;2.60;1.85;;;24.10;91.50;;;;;;5035222;28;45777;-70
2022/08/16 12:05:14;;;;;;;2.17;1.70;;;24.10;91.60;;;;;;5035690;28;45531;-70
2022/08/16 12:07:41;;;;;;;2.53;1.58;;;24.10;91.60;;;;;;5037214;28;45363;-70
2022/08/16 12:10:11;;;;;;;1.63;1.45;;;24.10;91.50;;;;;;5034309;28;45335;-70
2022/08/16 12:12:38;;;;;;;1.90;1.70;;;24.20;91.50;;;;;;5037165;28;45459;-70
2022/08/16 12:15:06;;;;;;;2.20;1.77;;;24.10;91.40;;;;;;5037780;28;45576;-70
2022/08/16 12:17:34;;;;;;;1.67;1.50;;;24.10;91.40;;;;;;5036730;28;45213;-70
2022/08/16 12:20:02;;;;;;;1.85;1.60;;;24.10;91.40;;;;;;5034963;27;47374;-70
2022/08/16 12:22:29;;;;;;;1.60;1.50;;;24.20;91.50;;;;;;5034690;28;45428;-70
2022/08/16 12:24:56;;;;;;;2.05;1.85;;;24.10;91.40;;;;;;5035677;27;45449;-70
2022/08/16 12:27:25;;;;;;;1.90;1.70;;;24.20;91.50;;;;;;5034124;27;45287;-70
2022/08/16 12:29:52;;;;;;;2.13;1.80;;;24.20;91.50;;;;;;5037498;28;45305;-70
2022/08/16 12:32:19;;;;;;;1.65;1.50;;;24.10;91.60;;;;;;5037011;28;45489;-70
2022/08/16 12:34:48;;;;;;;1.70;1.50;;;24.10;91.40;;;;;;5040108;28;45459;-69
2022/08/16 12:37:15;;;;;;;1.75;1.60;;;24.20;91.20;;;;;;5037738;27;45337;-70
2022/08/16 12:39:42;;;;;;;2.08;1.77;;;24.20;91.30;;;;;;5039686;28;47512;-70
2022/08/16 12:42:09;;;;;;;3.03;2.03;;;24.10;91.10;;;;;;5039571;28;46526;-69
2022/08/16 12:44:36;;;;;;;3.20;1.70;;;24.10;91.20;;;;;;5039229;28;45513;-69
2022/08/16 12:49:49;;;;;;;1.58;1.48;;;24.20;91.60;;;;;;5039985;27;45437;-71
2022/08/16 12:52:16;;;;;;;2.55;1.58;;;24.20;91.10;;;;;;5039602;27;45406;-70